Time;durP1;ratioP1;P1;durP2;ratioP2;P2;SDS_P1;SDS_P2;PMS_P1;PMS_P2;Temp;Humidity;BMP_temperature;BMP_pressure;BME280_temperature;BME280_humidity;BME280_pressure;Samples;Min_cycle;Max_cycle;Signal;HPM_P1;HPM_P2
2021/12/12 00:00:14;;;;;;;15.15;9.10;;;77.20;2227.20;;;;;;5097792;28;20443;-90
2021/12/12 00:02:57;;;;;;;10.47;6.13;;;77.30;2227.20;;;;;;5097690;28;20030;-91
2021/12/12 00:05:30;;;;;;;13.47;6.83;;;77.30;2227.20;;;;;;5097670;28;20252;-91
2021/12/12 00:07:56;;;;;;;11.05;6.07;;;77.20;2227.20;;;;;;5097493;28;20028;-91
2021/12/12 00:10:26;;;;;;;12.20;6.18;;;77.20;2227.20;;;;;;5097552;28;20451;-91
2021/12/12 00:13:01;;;;;;;16.38;9.50;;;77.20;2227.20;;;;;;5097610;28;20372;-90
2021/12/12 00:15:27;;;;;;;17.70;9.35;;;77.30;2227.20;;;;;;5097656;28;20020;-90
2021/12/12 00:17:54;;;;;;;15.52;8.75;;;77.30;2227.20;;;;;;5097282;28;20027;-90
2021/12/12 00:20:23;;;;;;;19.95;9.18;;;77.40;2227.20;;;;;;5097222;28;20020;-91
2021/12/12 00:22:52;;;;;;;17.25;8.55;;;77.40;2227.20;;;;;;5097202;28;20050;-91
2021/12/12 00:25:19;;;;;;;16.38;8.48;;;77.40;2227.20;;;;;;5097039;28;20052;-92
2021/12/12 00:27:45;;;;;;;12.75;8.00;;;77.40;2227.20;;;;;;5097767;28;20024;-91
2021/12/12 00:30:13;;;;;;;9.85;6.13;;;77.50;2227.20;;;;;;5097183;28;20507;-92
2021/12/12 00:32:39;;;;;;;15.25;8.23;;;77.40;2227.20;;;;;;5107061;28;20012;-88
2021/12/12 00:35:13;;;;;;;8.18;4.05;;;77.50;2227.20;;;;;;5120104;28;20033;-90
2021/12/12 00:37:40;;;;;;;12.13;6.75;;;77.50;2227.20;;;;;;5097269;28;20016;-90
2021/12/12 00:40:33;;;;;;;13.65;8.13;;;77.50;2227.20;;;;;;5096940;28;20047;-92
2021/12/12 00:43:03;;;;;;;14.27;8.55;;;77.50;2227.20;;;;;;5097013;28;20699;-91
2021/12/12 00:45:31;;;;;;;22.80;13.52;;;77.70;2227.20;;;;;;5096743;28;20027;-91
2021/12/12 00:47:58;;;;;;;11.65;6.57;;;77.70;2227.20;;;;;;5096774;28;20371;-91
2021/12/12 00:50:43;;;;;;;10.77;6.22;;;77.70;2227.20;;;;;;5096643;28;20026;-91
2021/12/12 00:53:11;;;;;;;9.32;5.45;;;77.70;2227.20;;;;;;5096809;28;20024;-91
2021/12/12 00:55:39;;;;;;;10.07;5.85;;;102.40;2227.20;;;;;;5096609;28;20020;-92
2021/12/12 00:58:11;;;;;;;10.85;5.38;;;102.40;2227.20;;;;;;5096597;28;20516;-93
2021/12/12 01:00:47;;;;;;;10.60;6.50;;;102.40;2227.20;;;;;;5096653;28;20043;-91
2021/12/12 01:03:14;;;;;;;10.63;6.15;;;102.40;2227.20;;;;;;5096382;28;20032;-91
2021/12/12 01:05:41;;;;;;;15.30;8.48;;;102.40;2176.00;;;;;;5095985;28;20020;-90
2021/12/12 01:08:08;;;;;;;7.32;4.28;;;102.40;2227.20;;;;;;5096206;28;20016;-91
2021/12/12 01:10:42;;;;;;;11.95;6.15;;;102.40;2227.20;;;;;;5096238;28;20024;-90
2021/12/12 01:13:08;;;;;;;5.82;3.30;;;102.40;2227.20;;;;;;5096313;28;20024;-91
2021/12/12 01:15:40;;;;;;;12.40;7.35;;;102.60;1920.00;;;;;;5096142;28;20028;-90
2021/12/12 01:18:16;;;;;;;10.48;5.95;;;102.50;1894.40;;;;;;5096183;28;20020;-91
2021/12/12 01:20:53;;;;;;;10.07;5.28;;;102.50;2227.20;;;;;;5096166;28;20054;-91
2021/12/12 01:23:38;;;;;;;6.88;3.53;;;102.50;2227.20;;;;;;5096007;28;20039;-90
2021/12/12 01:26:07;;;;;;;9.10;5.55;;;102.50;2227.20;;;;;;5097114;28;20024;-92
2021/12/12 01:28:36;;;;;;;8.30;4.55;;;102.50;2227.20;;;;;;5095879;28;20024;-92
2021/12/12 01:31:07;;;;;;;6.72;3.33;;;102.50;2227.20;;;;;;5095764;28;20077;-91
2021/12/12 01:33:35;;;;;;;4.72;2.47;;;102.40;2227.20;;;;;;5095773;28;20437;-91
2021/12/12 01:36:12;;;;;;;6.15;3.13;;;102.40;2227.20;;;;;;5095691;28;20114;-91
2021/12/12 01:38:52;;;;;;;3.97;2.28;;;77.70;2227.20;;;;;;5095429;28;20056;-91
2021/12/12 01:41:25;;;;;;;4.95;2.10;;;77.70;2227.20;;;;;;5095981;28;20016;-90
2021/12/12 01:43:55;;;;;;;5.00;2.55;;;77.70;2227.20;;;;;;5096040;28;20367;-91
2021/12/12 01:46:30;;;;;;;5.65;2.60;;;77.60;2227.20;;;;;;5095762;28;20020;-91
2021/12/12 01:49:00;;;;;;;5.75;2.72;;;77.70;2227.20;;;;;;5095877;28;20035;-91
2021/12/12 01:51:29;;;;;;;5.28;2.65;;;77.60;2227.20;;;;;;5095703;28;20107;-92
2021/12/12 01:54:01;;;;;;;5.20;2.28;;;77.50;2227.20;;;;;;5095563;28;20062;-91
2021/12/12 01:56:42;;;;;;;6.32;3.00;;;77.50;2227.20;;;;;;5095279;28;20027;-90
2021/12/12 01:59:10;;;;;;;6.53;3.20;;;77.50;2227.20;;;;;;5095801;28;20030;-91
2021/12/12 02:01:41;;;;;;;4.97;2.80;;;77.60;1996.80;;;;;;5095101;28;20047;-91
2021/12/12 02:04:15;;;;;;;5.18;3.15;;;77.50;2227.20;;;;;;5095671;28;20137;-92
2021/12/12 02:06:49;;;;;;;5.55;3.75;;;77.50;2227.20;;;;;;5095365;28;20031;-90
2021/12/12 02:09:16;;;;;;;4.50;2.75;;;77.50;2227.20;;;;;;5095226;28;20032;-90
2021/12/12 02:11:44;;;;;;;5.13;2.97;;;77.50;2227.20;;;;;;5095042;28;20023;-91
2021/12/12 02:14:13;;;;;;;4.50;2.47;;;77.50;2227.20;;;;;;5095000;28;20501;-92
2021/12/12 02:16:47;;;;;;;3.58;1.83;;;77.40;2227.20;;;;;;5094268;28;20115;-91
2021/12/12 02:19:15;;;;;;;5.82;2.92;;;77.40;2227.20;;;;;;5095101;28;20017;-91
2021/12/12 02:22:29;;;;;;;6.60;2.70;;;77.40;2227.20;;;;;;5094878;28;20050;-91
2021/12/12 02:35:53;;;;;;;5.13;2.55;;;77.40;2227.20;;;;;;5095712;28;20578;-92
2021/12/12 02:38:27;;;;;;;4.97;2.47;;;77.40;2227.20;;;;;;5094979;28;20169;-90
2021/12/12 02:40:59;;;;;;;3.50;1.95;;;77.20;2227.20;;;;;;5094586;28;20072;-91
2021/12/12 02:43:31;;;;;;;4.32;2.10;;;77.40;2227.20;;;;;;5094596;28;20391;-90
2021/12/12 02:45:57;;;;;;;5.35;1.95;;;77.50;2227.20;;;;;;5094786;28;20416;-90
2021/12/12 02:48:39;;;;;;;3.00;1.52;;;77.50;2227.20;;;;;;5094726;28;20043;-92
2021/12/12 02:51:09;;;;;;;4.28;2.22;;;77.50;2227.20;;;;;;5094664;28;20115;-91
2021/12/12 02:53:42;;;;;;;3.95;1.70;;;77.40;2227.20;;;;;;5095071;28;20115;-92
2021/12/12 02:56:18;;;;;;;4.93;2.20;;;77.40;2227.20;;;;;;5094517;28;20115;-93
2021/12/12 02:58:45;;;;;;;6.60;2.42;;;77.40;2227.20;;;;;;5094581;28;20032;-93
2021/12/12 03:01:21;;;;;;;4.70;2.25;;;77.50;2227.20;;;;;;5094428;28;20020;-92
2021/12/12 03:03:49;;;;;;;5.03;2.35;;;77.50;2227.20;;;;;;5094211;28;20028;-92
2021/12/12 03:06:19;;;;;;;3.67;1.80;;;77.50;1920.00;;;;;;5094020;28;20099;-92
2021/12/12 03:08:49;;;;;;;5.55;2.85;;;77.50;2227.20;;;;;;5094429;28;20024;-90
2021/12/12 03:11:15;;;;;;;4.88;2.42;;;77.60;2227.20;;;;;;5094062;28;20115;-91
2021/12/12 03:13:43;;;;;;;4.68;1.90;;;77.60;2227.20;;;;;;5093987;28;20058;-92
2021/12/12 03:16:10;;;;;;;3.08;1.50;;;77.60;2227.20;;;;;;5094080;28;20020;-92
2021/12/12 03:18:41;;;;;;;3.85;1.70;;;77.60;2227.20;;;;;;5093983;28;20024;-90
2021/12/12 03:21:17;;;;;;;6.32;3.63;;;77.50;2227.20;;;;;;5094071;28;20482;-91
2021/12/12 03:23:55;;;;;;;5.68;2.30;;;77.60;2227.20;;;;;;5093748;28;20032;-91
2021/12/12 03:26:21;;;;;;;5.90;2.75;;;77.60;2227.20;;;;;;5094162;28;20521;-93
2021/12/12 03:28:50;;;;;;;6.40;3.47;;;77.60;2227.20;;;;;;5093923;28;20052;-91
2021/12/12 03:31:24;;;;;;;5.22;3.30;;;77.60;1894.40;;;;;;5093318;28;20036;-90
2021/12/12 03:33:51;;;;;;;5.00;2.42;;;77.60;2227.20;;;;;;5093813;28;20020;-91
2021/12/12 03:36:17;;;;;;;5.53;3.05;;;77.60;2227.20;;;;;;5093661;28;20061;-90
2021/12/12 03:38:49;;;;;;;4.93;2.35;;;77.50;2227.20;;;;;;5093542;28;20020;-91
2021/12/12 03:41:19;;;;;;;6.03;3.13;;;77.50;2227.20;;;;;;5093889;28;20459;-91
2021/12/12 03:43:49;;;;;;;4.22;2.20;;;77.50;2227.20;;;;;;5093691;28;20040;-90
2021/12/12 03:46:14;;;;;;;6.07;3.20;;;77.40;2150.40;;;;;;5093898;28;20097;-91
2021/12/12 03:48:43;;;;;;;5.68;2.55;;;77.40;2150.40;;;;;;5093768;28;20443;-91
2021/12/12 03:51:12;;;;;;;5.82;3.08;;;77.10;2227.20;;;;;;5093739;28;20418;-92
2021/12/12 03:53:39;;;;;;;4.20;2.03;;;77.40;2227.20;;;;;;5093755;28;20028;-91
2021/12/12 03:56:10;;;;;;;5.28;3.13;;;102.40;2227.20;;;;;;5093969;28;20046;-91
2021/12/12 03:58:36;;;;;;;6.35;2.63;;;77.30;2227.20;;;;;;5093778;28;20115;-93
2021/12/12 04:01:18;;;;;;;4.82;2.45;;;77.30;2227.20;;;;;;5093821;28;20452;-93
2021/12/12 04:03:45;;;;;;;5.15;2.92;;;77.30;2227.20;;;;;;5093710;28;20455;-92
2021/12/12 04:06:15;;;;;;;6.68;4.20;;;77.30;2227.20;;;;;;5093553;28;20136;-93
2021/12/12 04:08:48;;;;;;;4.72;2.40;;;77.40;2227.20;;;;;;5093548;28;20024;-92
2021/12/12 04:11:19;;;;;;;7.18;4.45;;;77.30;2227.20;;;;;;5093642;28;20020;-92
2021/12/12 04:13:47;;;;;;;7.40;4.25;;;77.30;2227.20;;;;;;5093679;28;20034;-93
2021/12/12 04:16:13;;;;;;;7.68;4.30;;;77.40;2227.20;;;;;;5111857;28;20022;-93
2021/12/12 04:18:40;;;;;;;7.43;4.03;;;77.40;2227.20;;;;;;5111990;28;20020;-93
2021/12/12 04:21:06;;;;;;;7.38;4.60;;;77.40;2227.20;;;;;;5094030;28;20371;-90
2021/12/12 04:23:32;;;;;;;6.35;3.97;;;77.40;2227.20;;;;;;5093851;28;20085;-92
2021/12/12 04:26:14;;;;;;;4.65;2.65;;;77.40;2227.20;;;;;;5093374;28;20068;-91
2021/12/12 04:28:41;;;;;;;4.63;2.45;;;77.40;2227.20;;;;;;5093428;28;20119;-91
2021/12/12 04:31:07;;;;;;;5.78;3.50;;;77.40;2227.20;;;;;;5093619;28;20097;-92
2021/12/12 04:33:33;;;;;;;13.32;7.00;;;77.30;2227.20;;;;;;5093412;28;20028;-90
2021/12/12 04:35:59;;;;;;;8.00;4.40;;;77.50;1894.40;;;;;;5093308;28;20020;-92
2021/12/12 04:38:25;;;;;;;5.28;2.53;;;77.50;2227.20;;;;;;5093166;28;20344;-91
2021/12/12 04:40:51;;;;;;;14.52;7.57;;;77.40;2227.20;;;;;;5094427;28;20040;-91
2021/12/12 04:43:17;;;;;;;10.68;5.35;;;77.50;1868.80;;;;;;5096763;28;20077;-91
2021/12/12 04:45:57;;;;;;;6.88;3.25;;;77.40;2227.20;;;;;;5096909;28;20402;-91
2021/12/12 04:51:50;;;;;;;4.85;2.50;;;77.40;2227.20;;;;;;5097691;28;20034;-91
2021/12/12 04:54:38;;;;;;;4.78;2.17;;;77.50;2227.20;;;;;;5093389;28;20032;-93
2021/12/12 04:57:10;;;;;;;4.07;2.20;;;77.50;2227.20;;;;;;5097728;28;20456;-90
2021/12/12 04:59:44;;;;;;;4.32;2.42;;;77.50;2227.20;;;;;;5096770;28;20024;-92
2021/12/12 05:02:21;;;;;;;5.43;2.80;;;77.50;2022.40;;;;;;5096727;28;20031;-92
2021/12/12 05:04:56;;;;;;;14.23;6.82;;;77.50;2227.20;;;;;;5096597;28;20455;-91
2021/12/12 05:07:32;;;;;;;8.15;5.22;;;77.50;2227.20;;;;;;5096272;28;20031;-91
2021/12/12 05:10:06;;;;;;;5.80;4.45;;;77.50;2227.20;;;;;;5096442;28;20016;-92
2021/12/12 05:13:11;;;;;;;9.63;6.30;;;77.50;2227.20;;;;;;5096415;28;20456;-91
2021/12/12 05:16:09;;;;;;;7.78;4.70;;;77.40;2227.20;;;;;;5095613;28;20488;-90
2021/12/12 05:18:49;;;;;;;8.98;5.72;;;77.40;2227.20;;;;;;5077223;28;20089;-92
2021/12/12 05:21:18;;;;;;;8.13;4.65;;;77.40;2227.20;;;;;;5096003;28;20035;-91
2021/12/12 05:23:48;;;;;;;5.43;3.55;;;77.50;2227.20;;;;;;5096114;28;20472;-91
2021/12/12 05:26:19;;;;;;;5.18;3.20;;;77.50;2227.20;;;;;;5096231;28;20027;-91
2021/12/12 05:28:59;;;;;;;6.70;4.65;;;77.50;2227.20;;;;;;5096100;28;20028;-90
2021/12/12 05:31:26;;;;;;;6.22;3.85;;;77.50;2227.20;;;;;;5095877;28;20503;-90
2021/12/12 05:33:54;;;;;;;8.00;4.63;;;77.50;2227.20;;;;;;5095836;28;20031;-91
2021/12/12 05:36:21;;;;;;;8.25;5.80;;;77.40;2227.20;;;;;;5095843;28;20024;-90
2021/12/12 05:38:48;;;;;;;9.05;6.70;;;77.40;2227.20;;;;;;5095334;28;20044;-90
2021/12/12 05:41:19;;;;;;;9.93;6.63;;;77.50;2227.20;;;;;;5095918;28;20020;-91
2021/12/12 05:43:47;;;;;;;6.60;4.50;;;77.50;2227.20;;;;;;5095409;28;20028;-91
2021/12/12 05:46:18;;;;;;;5.70;4.03;;;77.50;2227.20;;;;;;5095603;28;20020;-90
2021/12/12 05:48:45;;;;;;;6.05;3.97;;;77.50;2227.20;;;;;;5095666;28;20027;-92
2021/12/12 05:51:11;;;;;;;4.00;2.40;;;77.50;2227.20;;;;;;5095082;28;20051;-90
2021/12/12 05:53:37;;;;;;;5.65;3.65;;;77.50;2227.20;;;;;;5095458;28;20118;-90
2021/12/12 05:56:04;;;;;;;7.65;4.25;;;77.50;2227.20;;;;;;5095514;28;20020;-91
2021/12/12 05:58:31;;;;;;;4.80;2.45;;;77.50;2227.20;;;;;;5095785;28;20359;-90
2021/12/12 06:01:00;;;;;;;5.60;3.10;;;77.60;2227.20;;;;;;5095993;28;20031;-91
2021/12/12 06:03:29;;;;;;;5.50;3.30;;;77.40;2227.20;;;;;;5095177;28;20035;-92
2021/12/12 06:05:57;;;;;;;10.98;6.75;;;77.40;2227.20;;;;;;5095225;28;20530;-90
2021/12/12 06:08:26;;;;;;;6.78;3.33;;;77.40;2227.20;;;;;;5095237;28;20020;-91
2021/12/12 06:10:55;;;;;;;10.63;6.53;;;77.40;2227.20;;;;;;5094722;28;20016;-91
2021/12/12 06:13:22;;;;;;;6.22;3.90;;;77.40;2227.20;;;;;;5095059;28;20024;-90
2021/12/12 06:15:51;;;;;;;6.47;3.50;;;77.40;2227.20;;;;;;5095059;28;20103;-91
2021/12/12 06:18:19;;;;;;;10.18;6.13;;;77.40;2227.20;;;;;;5095081;28;20030;-92
2021/12/12 06:20:46;;;;;;;7.97;4.55;;;77.40;2227.20;;;;;;5094967;28;20043;-90
2021/12/12 06:23:15;;;;;;;9.80;4.88;;;77.20;2227.20;;;;;;5094657;28;20028;-90
2021/12/12 06:25:41;;;;;;;8.35;5.40;;;77.40;2227.20;;;;;;5094636;28;20048;-90
2021/12/12 06:28:09;;;;;;;6.03;3.53;;;77.40;2227.20;;;;;;5094734;28;20031;-91
2021/12/12 06:30:35;;;;;;;7.55;4.30;;;77.40;2227.20;;;;;;5094754;28;20063;-91
2021/12/12 06:33:01;;;;;;;11.07;6.22;;;77.40;2227.20;;;;;;5094806;28;20059;-91
2021/12/12 06:35:27;;;;;;;15.73;9.68;;;77.50;2227.20;;;;;;5094709;28;20020;-91
2021/12/12 06:37:53;;;;;;;9.95;6.10;;;77.40;2227.20;;;;;;5094449;28;20367;-91
2021/12/12 06:40:21;;;;;;;10.90;7.10;;;77.40;2227.20;;;;;;5093982;28;20149;-91
2021/12/12 06:42:49;;;;;;;9.30;6.00;;;77.40;2227.20;;;;;;5094516;28;20105;-90
2021/12/12 06:45:16;;;;;;;20.35;12.35;;;77.50;2227.20;;;;;;5094565;28;20020;-90
2021/12/12 06:47:42;;;;;;;10.63;7.63;;;77.50;2227.20;;;;;;5094291;28;20065;-91
2021/12/12 06:50:10;;;;;;;12.05;6.93;;;77.50;2227.20;;;;;;5094457;28;20436;-90
2021/12/12 06:52:36;;;;;;;11.93;6.65;;;77.10;2227.20;;;;;;5094528;28;20032;-91
2021/12/12 06:55:06;;;;;;;8.52;5.10;;;77.60;2227.20;;;;;;5094666;28;20559;-91
2021/12/12 06:57:32;;;;;;;8.60;5.15;;;77.60;2227.20;;;;;;5094604;28;20106;-91
2021/12/12 06:59:58;;;;;;;9.75;6.22;;;77.60;2227.20;;;;;;5094548;28;20044;-92
2021/12/12 07:02:25;;;;;;;9.88;4.78;;;77.60;2227.20;;;;;;5094229;28;20419;-91
2021/12/12 07:04:51;;;;;;;15.02;7.95;;;77.60;2227.20;;;;;;5094354;28;20023;-90
2021/12/12 07:07:17;;;;;;;10.50;6.28;;;77.70;2227.20;;;;;;5094213;28;20054;-90
2021/12/12 07:09:47;;;;;;;11.18;6.82;;;77.70;2227.20;;;;;;5094147;28;20054;-91
2021/12/12 07:12:15;;;;;;;7.47;4.90;;;102.40;2227.20;;;;;;5094094;28;20024;-91
2021/12/12 07:14:43;;;;;;;8.82;6.63;;;102.40;2227.20;;;;;;5094051;28;20024;-92
2021/12/12 07:17:09;;;;;;;9.40;6.70;;;102.50;2227.20;;;;;;5094196;28;20020;-91
2021/12/12 07:19:37;;;;;;;9.43;6.03;;;102.40;2227.20;;;;;;5093963;28;20028;-90
2021/12/12 07:22:04;;;;;;;11.50;6.80;;;102.60;2227.20;;;;;;5093815;28;20067;-90
2021/12/12 07:24:31;;;;;;;16.55;12.32;;;102.50;2227.20;;;;;;5093740;28;20024;-91
2021/12/12 07:26:58;;;;;;;12.68;8.60;;;102.60;2227.20;;;;;;5093888;28;20336;-91
2021/12/12 07:29:26;;;;;;;12.10;7.40;;;102.70;2227.20;;;;;;5093792;28;20336;-91
2021/12/12 07:31:53;;;;;;;21.48;14.20;;;102.70;2227.20;;;;;;5094706;28;20046;-91
2021/12/12 07:34:19;;;;;;;26.67;19.85;;;102.70;2227.20;;;;;;5093843;28;20028;-91
2021/12/12 07:36:57;;;;;;;14.43;9.80;;;102.60;2227.20;;;;;;5093767;28;20028;-91
2021/12/12 07:39:24;;;;;;;14.63;10.48;;;102.80;2227.20;;;;;;5093370;28;20532;-92
2021/12/12 07:41:52;;;;;;;21.05;14.98;;;102.90;2227.20;;;;;;5093774;28;20359;-92
2021/12/12 07:44:24;;;;;;;22.02;14.80;;;102.90;2227.20;;;;;;5093723;28;20020;-91
2021/12/12 07:46:52;;;;;;;28.97;19.87;;;103.00;2227.20;;;;;;5093602;28;20023;-92
2021/12/12 07:49:21;;;;;;;229.63;96.50;;;103.10;2227.20;;;;;;5093821;28;20562;-92
2021/12/12 07:51:48;;;;;;;41.30;29.45;;;103.10;2227.20;;;;;;5093796;28;20020;-92
2021/12/12 07:54:14;;;;;;;30.08;22.52;;;103.10;2227.20;;;;;;5093584;28;20024;-91
2021/12/12 07:56:42;;;;;;;27.90;20.98;;;103.10;2227.20;;;;;;5093685;28;20363;-90
2021/12/12 07:59:09;;;;;;;40.72;28.88;;;103.10;2227.20;;;;;;5093746;28;20085;-93
2021/12/12 08:01:39;;;;;;;27.80;20.02;;;103.10;2227.20;;;;;;5093642;28;20028;-92
2021/12/12 08:04:05;;;;;;;26.05;17.52;;;103.10;2227.20;;;;;;5093567;28;20459;-92
2021/12/12 08:06:32;;;;;;;28.95;21.83;;;103.10;2227.20;;;;;;5093680;28;20020;-90
2021/12/12 08:08:58;;;;;;;33.20;21.88;;;103.00;2227.20;;;;;;5093465;28;20023;-92
2021/12/12 08:11:33;;;;;;;26.10;17.70;;;103.00;2227.20;;;;;;5093208;28;20452;-91
2021/12/12 08:14:03;;;;;;;27.58;18.73;;;103.00;2227.20;;;;;;5093807;28;20062;-90
2021/12/12 08:16:30;;;;;;;55.63;38.33;;;103.00;2227.20;;;;;;5097168;28;20460;-91
2021/12/12 08:18:58;;;;;;;40.40;33.65;;;103.10;2227.20;;;;;;5098443;28;20028;-91
2021/12/12 08:21:24;;;;;;;38.35;29.05;;;103.10;2227.20;;;;;;5098776;28;20016;-92
2021/12/12 08:23:52;;;;;;;21.50;14.98;;;103.10;2227.20;;;;;;5098098;28;20035;-90
2021/12/12 08:26:19;;;;;;;25.75;18.33;;;103.10;2227.20;;;;;;5098375;28;20016;-91
2021/12/12 08:28:45;;;;;;;31.27;26.48;;;103.10;2227.20;;;;;;5097832;28;20048;-90
2021/12/12 08:31:13;;;;;;;20.40;14.00;;;103.20;2227.20;;;;;;5098030;28;20076;-90
2021/12/12 08:33:39;;;;;;;25.55;17.70;;;128.30;2252.80;;;;;;5097952;28;20027;-90
2021/12/12 08:36:05;;;;;;;35.05;22.83;;;103.20;2227.20;;;;;;5096911;28;20024;-92
2021/12/12 08:38:31;;;;;;;35.78;22.45;;;102.90;2227.20;;;;;;5097049;28;20016;-90
2021/12/12 08:41:03;;;;;;;23.95;17.02;;;103.30;2227.20;;;;;;5096962;28;20024;-90
2021/12/12 08:43:29;;;;;;;21.52;14.10;;;103.30;2227.20;;;;;;5096866;28;20060;-92
2021/12/12 08:46:02;;;;;;;19.15;13.48;;;103.30;2227.20;;;;;;5097022;28;20031;-90
2021/12/12 08:48:30;;;;;;;;;;;103.30;2227.20;;;;;;5097255;28;20419;-90
2021/12/12 08:51:00;;;;;;;12.98;8.52;;;103.30;2227.20;;;;;;5096900;28;19950;-89
2021/12/12 08:53:27;;;;;;;32.28;19.70;;;103.20;2227.20;;;;;;5096501;28;20455;-90
2021/12/12 08:55:57;;;;;;;37.63;23.00;;;103.20;2227.20;;;;;;5096611;28;20020;-90
2021/12/12 08:58:28;;;;;;;20.00;13.80;;;103.20;2227.20;;;;;;5096686;28;20107;-86
2021/12/12 09:01:07;;;;;;;22.23;16.08;;;103.20;2227.20;;;;;;5096770;28;20047;-89
2021/12/12 09:03:41;;;;;;;45.22;24.95;;;103.10;2227.20;;;;;;5096548;28;20028;-90
2021/12/12 09:06:09;;;;;;;26.90;16.45;;;103.10;2227.20;;;;;;5096710;28;20073;-91
2021/12/12 09:08:52;;;;;;;35.60;22.13;;;103.10;2227.20;;;;;;5096706;28;20037;-90
2021/12/12 09:11:51;;;;;;;17.80;12.18;;;103.10;2227.20;;;;;;5096758;28;20459;-93
2021/12/12 09:14:33;;;;;;;17.20;10.32;;;103.10;2227.20;;;;;;5034301;28;20028;-91
2021/12/12 09:17:23;;;;;;;43.50;20.88;;;103.10;2227.20;;;;;;5096850;28;20085;-92
2021/12/12 09:20:16;;;;;;;23.15;13.05;;;103.00;2227.20;;;;;;5097309;28;20451;-93
2021/12/12 09:22:55;;;;;;;26.38;16.58;;;103.10;2227.20;;;;;;5082791;28;20036;-90
2021/12/12 09:25:49;;;;;;;25.20;17.25;;;103.10;2227.20;;;;;;5096059;28;20090;-91
2021/12/12 09:28:44;;;;;;;37.53;21.05;;;103.10;2227.20;;;;;;5097056;28;20082;-90
2021/12/12 09:31:25;;;;;;;36.58;20.45;;;103.10;2227.20;;;;;;5095692;28;20451;-90
2021/12/12 09:34:04;;;;;;;61.60;32.28;;;103.10;2227.20;;;;;;5095596;28;20020;-92
2021/12/12 09:37:10;;;;;;;93.90;50.28;;;103.10;2227.20;;;;;;5096135;28;20093;-95
2021/12/12 09:39:42;;;;;;;70.60;42.55;;;103.00;2227.20;;;;;;5095406;28;20079;-91
2021/12/12 09:42:29;;;;;;;66.13;42.13;;;103.10;2227.20;;;;;;5096098;28;20020;-91
2021/12/12 09:44:58;;;;;;;58.28;35.95;;;103.10;2227.20;;;;;;5096209;28;20024;-89
2021/12/12 09:48:03;;;;;;;83.65;47.42;;;103.30;2227.20;;;;;;5095192;28;20034;-89
2021/12/12 09:54:20;;;;;;;16.30;11.38;;;103.20;2227.20;;;;;;5096227;28;20035;-91
2021/12/12 09:56:58;;;;;;;13.38;10.65;;;103.10;2227.20;;;;;;5095189;28;20020;-92
2021/12/12 09:59:49;;;;;;;20.98;14.43;;;103.20;2227.20;;;;;;5094948;28;20040;-90
2021/12/12 10:02:34;;;;;;;20.90;16.73;;;103.20;2227.20;;;;;;5095247;28;20063;-88
2021/12/12 10:05:18;;;;;;;20.95;17.42;;;103.20;2227.20;;;;;;5095017;28;20020;-91
2021/12/12 10:07:58;;;;;;;37.47;26.40;;;128.00;2252.80;;;;;;5095198;28;20037;-92
2021/12/12 10:10:36;;;;;;;26.15;20.70;;;128.00;2252.80;;;;;;5095673;28;20020;-90
2021/12/12 10:13:26;;;;;;;24.02;18.15;;;128.10;2252.80;;;;;;5095589;28;20051;-91
2021/12/12 10:16:04;;;;;;;13.52;10.95;;;128.10;2252.80;;;;;;5080234;28;20032;-91
2021/12/12 10:19:00;;;;;;;14.93;9.93;;;128.10;2252.80;;;;;;5094934;28;20434;-88
2021/12/12 10:21:56;;;;;;;19.33;14.77;;;128.20;2252.80;;;;;;5094270;28;20024;-87
2021/12/12 10:25:00;;;;;;;15.80;12.07;;;128.30;2252.80;;;;;;5094788;28;20337;-86
2021/12/12 10:27:41;;;;;;;18.42;15.15;;;128.30;2252.80;;;;;;5094107;28;20023;-86
2021/12/12 10:30:30;;;;;;;28.50;19.58;;;128.40;2252.80;;;;;;5094990;28;20451;-93
2021/12/12 10:33:27;;;;;;;15.90;11.25;;;128.40;2252.80;;;;;;5094484;28;20016;-91
2021/12/12 10:35:58;;;;;;;21.73;17.60;;;128.50;2252.80;;;;;;5094743;28;20012;-91
2021/12/12 10:38:36;;;;;;;18.58;16.58;;;128.60;2252.80;;;;;;5095018;28;20360;-90
2021/12/12 10:41:10;;;;;;;27.85;20.73;;;128.60;2252.80;;;;;;5054160;28;20033;-90
2021/12/12 10:43:52;;;;;;;16.75;11.95;;;128.60;2252.80;;;;;;5054332;28;20060;-95
2021/12/12 10:46:28;;;;;;;9.45;6.25;;;128.60;2252.80;;;;;;5054272;28;20017;-92
2021/12/12 10:49:24;;;;;;;17.95;12.00;;;128.60;2252.80;;;;;;5053815;28;20047;-90
2021/12/12 10:52:03;;;;;;;7.85;5.00;;;128.60;2252.80;;;;;;5053796;28;20082;-90
2021/12/12 10:54:54;;;;;;;13.18;9.40;;;128.40;2252.80;;;;;;5053971;28;20021;-88
2021/12/12 10:57:31;;;;;;;11.15;6.38;;;128.40;2252.80;;;;;;5053679;28;20021;-89
2021/12/12 11:00:04;;;;;;;14.30;9.93;;;128.40;2252.80;;;;;;5053763;28;20021;-88
2021/12/12 11:02:35;;;;;;;9.20;6.40;;;128.40;2252.80;;;;;;5053605;28;20029;-89
2021/12/12 11:05:10;;;;;;;17.98;12.57;;;128.40;2252.80;;;;;;5053843;28;20045;-87
2021/12/12 11:07:39;;;;;;;16.90;12.25;;;128.40;2252.80;;;;;;5054054;28;20025;-87
2021/12/12 11:10:23;;;;;;;18.15;11.43;;;128.40;2252.80;;;;;;5053326;28;20021;-88
2021/12/12 11:13:13;;;;;;;16.00;9.43;;;128.50;2252.80;;;;;;5053836;28;20043;-89
2021/12/12 11:15:47;;;;;;;14.98;10.50;;;128.60;2252.80;;;;;;5054653;28;20025;-86
2021/12/12 11:18:39;;;;;;;21.23;13.90;;;128.60;2252.80;;;;;;5053315;28;20029;-89
2021/12/12 11:21:17;;;;;;;20.75;10.50;;;128.70;2252.80;;;;;;5051260;28;20217;-88
2021/12/12 11:23:57;;;;;;;33.88;19.60;;;128.60;2252.80;;;;;;5052611;28;20075;-86
2021/12/12 11:26:31;;;;;;;41.38;20.75;;;128.60;2252.80;;;;;;5053747;28;20016;-87
2021/12/12 11:29:00;;;;;;;20.50;13.00;;;128.50;2252.80;;;;;;5052841;28;20085;-84
2021/12/12 11:31:51;;;;;;;17.00;11.35;;;128.40;2252.80;;;;;;5053048;28;20070;-88
2021/12/12 11:34:19;;;;;;;15.32;10.63;;;128.50;2252.80;;;;;;5053553;28;20025;-91
2021/12/12 11:37:03;;;;;;;12.60;9.20;;;128.40;2252.80;;;;;;5053399;28;20025;-91
2021/12/12 11:39:54;;;;;;;11.95;7.65;;;128.40;2252.80;;;;;;5073403;28;20123;-92
2021/12/12 11:42:33;;;;;;;13.68;10.23;;;128.30;2252.80;;;;;;5094896;28;20020;-93
2021/12/12 11:45:21;;;;;;;19.00;12.15;;;128.30;2252.80;;;;;;5093337;28;20024;-91
2021/12/12 11:47:57;;;;;;;12.77;9.15;;;128.30;2252.80;;;;;;5094517;28;20016;-91
2021/12/12 11:50:25;;;;;;;13.98;9.63;;;128.30;2252.80;;;;;;5094323;28;20027;-89
2021/12/12 11:53:03;;;;;;;17.92;11.05;;;128.30;2252.80;;;;;;5096453;28;20558;-92
2021/12/12 11:56:11;;;;;;;21.08;13.50;;;128.30;2252.80;;;;;;5097533;28;20024;-92
2021/12/12 11:58:55;;;;;;;21.38;12.77;;;128.40;2252.80;;;;;;5077275;28;20051;-93
2021/12/12 12:01:29;;;;;;;13.02;9.43;;;128.30;2252.80;;;;;;5100653;28;20031;-94
2021/12/12 12:04:13;;;;;;;9.10;5.88;;;128.20;2252.80;;;;;;5100313;28;20425;-93
2021/12/12 12:07:05;;;;;;;9.40;6.70;;;128.10;2252.80;;;;;;5100178;28;20069;-89
2021/12/12 12:10:10;;;;;;;15.00;9.07;;;128.10;2252.80;;;;;;5095971;28;20025;-92
2021/12/12 12:13:03;;;;;;;13.00;8.63;;;128.10;2252.80;;;;;;5100599;28;20516;-92
2021/12/12 12:15:49;;;;;;;9.07;5.80;;;128.10;2252.80;;;;;;5097500;28;20038;-92
2021/12/12 12:18:34;;;;;;;23.55;14.23;;;128.00;2252.80;;;;;;5099348;28;20043;-91
2021/12/12 12:21:34;;;;;;;16.02;9.48;;;128.00;2252.80;;;;;;5101745;28;20028;-91
2021/12/12 12:24:13;;;;;;;22.98;13.52;;;128.00;2252.80;;;;;;5098732;28;20031;-92
2021/12/12 12:27:04;;;;;;;26.55;17.15;;;128.00;2252.80;;;;;;5102264;28;20020;-94
2021/12/12 12:29:33;;;;;;;16.88;10.43;;;128.10;2252.80;;;;;;5102140;28;20012;-91
2021/12/12 12:32:10;;;;;;;16.98;11.93;;;128.10;2252.80;;;;;;5101971;28;20020;-91
2021/12/12 12:35:13;;;;;;;17.00;11.70;;;128.00;2252.80;;;;;;5102300;28;20017;-91
2021/12/12 12:37:42;;;;;;;14.27;11.00;;;128.00;2252.80;;;;;;5101993;28;20016;-91
2021/12/12 12:40:45;;;;;;;16.05;12.07;;;128.00;2252.80;;;;;;5101863;28;20040;-91
2021/12/12 12:43:39;;;;;;;17.00;12.43;;;128.00;2252.80;;;;;;5121338;28;20086;-93
2021/12/12 12:46:08;;;;;;;17.05;12.73;;;128.00;2252.80;;;;;;5104171;28;20069;-90
2021/12/12 12:49:12;;;;;;;22.95;16.63;;;103.30;2227.20;;;;;;5104077;28;20020;-90
2021/12/12 12:52:17;;;;;;;14.60;8.43;;;128.00;2252.80;;;;;;5101441;28;20027;-90
2021/12/12 12:55:10;;;;;;;21.42;12.00;;;103.30;2227.20;;;;;;5062827;28;20081;-90
2021/12/12 12:57:41;;;;;;;32.92;19.67;;;103.20;2227.20;;;;;;5100423;28;20024;-90
2021/12/12 13:00:29;;;;;;;40.30;23.20;;;103.30;2227.20;;;;;;5101316;28;20070;-90
2021/12/12 13:03:24;;;;;;;21.02;13.50;;;103.30;2227.20;;;;;;5101244;28;20024;-90
2021/12/12 13:06:02;;;;;;;41.15;30.98;;;103.30;2227.20;;;;;;5101614;28;20092;-91